Time;durP1;ratioP1;P1;durP2;ratioP2;P2;SDS_P1;SDS_P2;PMS_P1;PMS_P2;Temp;Humidity;BMP_temperature;BMP_pressure;BME280_temperature;BME280_humidity;BME280_pressure;Samples;Min_cycle;Max_cycle;Signal;HPM_P1;HPM_P2
2024/01/27 00:02:05;;;;;;;3.90;2.35;;;;;;;4.39;69.81;99721.44;5026431;28;20210;-75
2024/01/27 00:04:31;;;;;;;5.22;2.10;;;;;;;4.33;69.91;99727.28;5027226;28;20197;-75
2024/01/27 00:06:58;;;;;;;4.18;2.42;;;;;;;4.37;69.77;99728.75;5028435;28;20228;-75
2024/01/27 00:09:25;;;;;;;3.72;2.40;;;;;;;4.36;69.89;99733.25;5027032;28;20611;-75
2024/01/27 00:11:52;;;;;;;5.68;2.53;;;;;;;4.29;70.28;99732.03;5029022;28;20231;-75
2024/01/27 00:14:18;;;;;;;3.03;2.08;;;;;;;4.26;70.37;99731.41;5029352;28;20201;-75
2024/01/27 00:16:45;;;;;;;3.85;2.08;;;;;;;4.29;70.51;99736.53;5027618;28;20721;-75
2024/01/27 00:19:12;;;;;;;4.03;2.20;;;;;;;4.40;70.24;99728.50;5028152;28;20221;-76
2024/01/27 00:21:38;;;;;;;6.50;3.05;;;;;;;4.29;70.44;99731.16;5027323;28;20657;-75
2024/01/27 00:24:05;;;;;;;5.82;3.10;;;;;;;4.21;70.46;99722.91;5029609;28;20320;-75
2024/01/27 00:26:33;;;;;;;5.10;2.50;;;;;;;4.26;70.35;99734.09;5029713;28;20280;-75
2024/01/27 00:28:59;;;;;;;4.85;2.70;;;;;;;4.15;71.26;99739.44;5026874;28;20229;-76
2024/01/27 00:31:26;;;;;;;2.83;2.15;;;;;;;4.25;71.44;99743.09;5026448;28;20251;-77
2024/01/27 00:33:53;;;;;;;5.85;2.40;;;;;;;4.05;71.78;99740.16;5026969;28;20210;-75
2024/01/27 00:36:20;;;;;;;5.50;2.33;;;;;;;4.19;71.96;99752.50;5031041;28;20206;-75
2024/01/27 00:38:46;;;;;;;3.63;2.60;;;;;;;4.08;72.49;99746.25;5015824;28;20214;-75
2024/01/27 00:41:17;;;;;;;4.88;2.33;;;;;;;4.16;72.72;99746.53;5032910;28;20221;-75
2024/01/27 00:43:45;;;;;;;5.82;2.83;;;;;;;4.02;72.76;99751.09;5029510;28;20208;-75
2024/01/27 00:46:12;;;;;;;4.55;2.38;;;;;;;4.14;72.62;99751.13;5031458;28;20208;-76
2024/01/27 00:48:38;;;;;;;3.50;2.90;;;;;;;3.83;73.76;99750.81;5031857;28;20209;-75
2024/01/27 00:51:05;;;;;;;2.65;2.40;;;;;;;3.99;73.43;99745.97;5033279;28;20228;-76
2024/01/27 00:53:30;;;;;;;3.33;2.85;;;;;;;3.85;74.02;99754.25;5032619;28;20206;-76
2024/01/27 00:55:57;;;;;;;4.67;3.20;;;;;;;3.86;74.31;99757.78;5031902;28;20212;-76
2024/01/27 00:58:24;;;;;;;4.43;2.85;;;;;;;3.74;74.66;99746.16;5032193;28;20298;-76
2024/01/27 01:00:52;;;;;;;6.75;3.33;;;;;;;3.88;74.24;99751.34;5032359;28;20233;-76
2024/01/27 01:03:18;;;;;;;5.97;2.90;;;;;;;3.70;74.71;99752.72;5029324;28;20215;-75
2024/01/27 01:05:45;;;;;;;6.88;3.08;;;;;;;3.67;75.10;99755.63;5031570;28;20198;-75
2024/01/27 01:08:12;;;;;;;4.47;3.10;;;;;;;3.64;75.49;99753.19;5023548;28;20202;-75
2024/01/27 01:10:38;;;;;;;6.32;3.28;;;;;;;3.57;75.31;99757.31;5033849;28;20649;-75
2024/01/27 01:13:05;;;;;;;3.50;3.13;;;;;;;3.41;76.47;99762.09;5032423;28;20229;-76
2024/01/27 01:15:32;;;;;;;5.50;3.50;;;;;;;3.32;76.70;99761.81;5032616;28;20198;-75
2024/01/27 01:18:01;;;;;;;5.97;3.00;;;;;;;3.18;76.64;99769.16;5032222;28;20210;-76
2024/01/27 01:20:27;;;;;;;3.40;3.10;;;;;;;3.31;76.25;99776.16;5046650;28;20194;-75
2024/01/27 01:22:54;;;;;;;3.40;3.10;;;;;;;3.21;76.37;99779.63;5030106;28;20201;-75
2024/01/27 01:25:20;;;;;;;6.75;3.00;;;;;;;3.14;76.56;99779.22;5029770;28;20214;-75
2024/01/27 01:27:49;;;;;;;5.00;2.97;;;;;;;2.95;76.78;99779.69;5031911;28;20213;-75
2024/01/27 01:30:16;;;;;;;5.05;3.22;;;;;;;2.98;76.73;99781.28;5031319;28;20213;-75
2024/01/27 01:32:43;;;;;;;5.90;2.90;;;;;;;2.98;76.86;99776.81;5030928;28;20201;-75
2024/01/27 01:35:11;;;;;;;7.50;3.10;;;;;;;2.84;77.37;99771.63;5030503;28;20210;-75
2024/01/27 01:37:37;;;;;;;4.22;2.53;;;;;;;3.04;76.45;99767.47;5027003;28;20204;-75
2024/01/27 01:40:05;;;;;;;3.35;2.45;;;;;;;2.95;76.88;99774.34;5029913;28;20208;-75
2024/01/27 01:42:32;;;;;;;3.40;2.95;;;;;;;2.97;76.55;99771.56;4989573;28;20295;-75
2024/01/27 01:44:58;;;;;;;5.80;3.00;;;;;;;2.94;76.87;99779.81;5029171;28;20289;-75
2024/01/27 01:47:25;;;;;;;5.55;2.92;;;;;;;2.71;77.32;99776.13;5029938;28;20198;-75
2024/01/27 01:49:53;;;;;;;4.95;2.80;;;;;;;2.94;76.69;99783.34;5031048;28;20309;-76
2024/01/27 01:52:21;;;;;;;3.03;2.75;;;;;;;2.78;77.12;99785.41;5005975;28;20217;-75
2024/01/27 01:54:49;;;;;;;5.28;3.53;;;;;;;2.84;76.93;99786.81;5026692;28;20294;-75
2024/01/27 01:57:15;;;;;;;3.53;2.40;;;;;;;3.00;76.26;99792.72;5031039;28;20296;-75
2024/01/27 01:59:42;;;;;;;4.28;2.78;;;;;;;2.89;76.61;99785.50;5030102;28;20205;-75
2024/01/27 02:02:09;;;;;;;4.85;3.25;;;;;;;2.96;76.23;99793.91;5006026;28;20202;-74
2024/01/27 02:04:40;;;;;;;4.35;3.00;;;;;;;2.82;76.55;99788.72;5028907;28;20615;-75
2024/01/27 02:07:07;;;;;;;5.03;3.72;;;;;;;2.90;76.48;99795.25;5029884;28;20280;-75
2024/01/27 02:09:35;;;;;;;5.50;3.00;;;;;;;2.96;76.34;99796.59;5030420;28;20248;-75
2024/01/27 02:12:02;;;;;;;4.13;2.67;;;;;;;2.86;76.60;99807.13;5027869;28;20285;-76
2024/01/27 02:14:28;;;;;;;6.38;3.13;;;;;;;2.77;76.68;99806.91;5028072;28;20233;-75
2024/01/27 02:16:55;;;;;;;3.42;2.72;;;;;;;2.70;77.03;99815.34;5030192;28;20686;-75
2024/01/27 02:19:21;;;;;;;4.75;3.08;;;;;;;2.61;77.32;99812.47;5029534;28;20735;-75
2024/01/27 02:21:48;;;;;;;4.85;2.70;;;;;;;2.68;77.28;99836.00;5030836;28;20223;-75
2024/01/27 02:24:16;;;;;;;5.03;2.90;;;;;;;2.62;77.46;99825.72;5028808;28;20285;-75
2024/01/27 02:26:42;;;;;;;9.25;3.90;;;;;;;2.59;77.38;99825.13;5029515;28;20213;-74
2024/01/27 02:29:09;;;;;;;5.30;3.20;;;;;;;2.72;77.19;99822.41;4972156;28;1361964;-75
2024/01/27 02:31:35;;;;;;;3.75;3.17;;;;;;;2.53;77.81;99825.53;5029633;28;21724;-75
2024/01/27 02:34:03;;;;;;;5.68;3.00;;;;;;;2.56;77.63;99830.69;5030620;28;20245;-75
2024/01/27 02:36:29;;;;;;;4.53;3.13;;;;;;;2.55;77.68;99835.16;5029751;28;20261;-75
2024/01/27 02:38:56;;;;;;;6.53;3.28;;;;;;;2.55;77.82;99829.81;5028037;28;20277;-75
2024/01/27 02:41:24;;;;;;;4.82;3.15;;;;;;;2.42;77.93;99828.09;5031457;28;20309;-76
2024/01/27 02:43:51;;;;;;;7.80;3.50;;;;;;;2.56;77.90;99831.53;5027574;28;20654;-75
2024/01/27 02:46:18;;;;;;;5.65;3.15;;;;;;;2.59;77.59;99836.66;5013206;28;20201;-75
2024/01/27 02:48:45;;;;;;;4.00;3.30;;;;;;;2.61;77.58;99839.19;5030907;28;20271;-75
2024/01/27 02:51:12;;;;;;;5.90;3.38;;;;;;;2.77;76.90;99839.00;5030040;28;20257;-76
2024/01/27 02:53:39;;;;;;;6.35;2.67;;;;;;;2.52;77.88;99842.53;5029787;28;20206;-75
2024/01/27 02:56:07;;;;;;;5.65;2.78;;;;;;;2.68;77.33;99838.66;5009876;28;20703;-76
2024/01/27 02:58:35;;;;;;;4.65;3.03;;;;;;;2.48;78.13;99833.88;5029049;28;20225;-75
2024/01/27 03:01:00;;;;;;;5.65;3.45;;;;;;;2.60;77.80;99842.88;5029934;28;20660;-75
2024/01/27 03:03:28;;;;;;;6.43;3.20;;;;;;;2.60;77.38;99841.00;5028016;28;20221;-75
2024/01/27 03:05:55;;;;;;;3.83;3.10;;;;;;;2.47;77.77;99845.53;5045235;28;20217;-75
2024/01/27 03:08:21;;;;;;;7.60;3.38;;;;;;;2.45;78.01;99844.78;5030688;28;20208;-75
2024/01/27 03:10:48;;;;;;;3.63;3.00;;;;;;;2.54;77.35;99837.94;5028706;28;20707;-75
2024/01/27 03:13:15;;;;;;;5.28;2.72;;;;;;;2.59;77.23;99843.81;5027881;28;20256;-75
2024/01/27 03:15:43;;;;;;;4.75;3.20;;;;;;;2.33;78.15;99843.78;5028275;28;20540;-75
2024/01/27 03:18:10;;;;;;;5.53;2.90;;;;;;;2.50;77.44;99837.28;5027825;28;20205;-75
2024/01/27 03:20:36;;;;;;;4.35;2.85;;;;;;;2.39;77.96;99850.53;5028278;28;20324;-75
2024/01/27 03:23:03;;;;;;;6.75;3.10;;;;;;;2.43;78.05;99845.84;5028679;28;20198;-75
2024/01/27 03:25:30;;;;;;;6.57;3.45;;;;;;;2.28;78.89;99847.72;5026817;28;20202;-74
2024/01/27 03:27:56;;;;;;;6.13;4.10;;;;;;;2.37;78.49;99852.47;5030221;28;20297;-75
2024/01/27 03:30:23;;;;;;;5.53;3.50;;;;;;;2.35;78.72;99862.38;5025627;28;20647;-75
2024/01/27 03:32:51;;;;;;;5.47;4.78;;;;;;;2.36;78.99;99851.59;5028945;28;20214;-75
2024/01/27 03:35:17;;;;;;;7.22;3.67;;;;;;;2.21;79.27;99857.16;5028979;28;20202;-75
2024/01/27 03:37:45;;;;;;;5.20;3.50;;;;;;;2.35;78.50;99871.25;5029651;28;20212;-75
2024/01/27 03:40:12;;;;;;;3.65;3.28;;;;;;;2.37;78.49;99873.81;5029406;28;20194;-75
2024/01/27 03:42:39;;;;;;;5.18;3.58;;;;;;;2.35;78.61;99876.59;5027780;28;20624;-74
2024/01/27 03:45:06;;;;;;;4.38;3.35;;;;;;;2.14;79.76;99880.75;5011368;28;20229;-75
2024/01/27 03:47:33;;;;;;;6.70;3.60;;;;;;;2.28;79.40;99880.66;5030055;28;20206;-75
2024/01/27 03:50:01;;;;;;;6.22;3.95;;;;;;;2.28;79.04;99885.13;5028216;28;20289;-75
2024/01/27 03:52:28;;;;;;;6.60;4.00;;;;;;;2.26;79.33;99887.09;5012121;28;20223;-75
2024/01/27 03:54:54;;;;;;;4.28;3.88;;;;;;;2.28;78.88;99885.13;5028658;28;20210;-75
2024/01/27 03:57:21;;;;;;;5.70;3.40;;;;;;;2.15;79.20;99884.28;5026674;28;20209;-75
2024/01/27 03:59:48;;;;;;;5.72;3.83;;;;;;;2.02;79.42;99890.44;5010574;28;20210;-75
2024/01/27 04:02:14;;;;;;;6.63;3.78;;;;;;;2.12;79.20;99888.00;5029772;28;20216;-75
2024/01/27 04:04:41;;;;;;;3.95;3.47;;;;;;;2.02;79.52;99893.09;5027061;28;20606;-75
2024/01/27 04:07:09;;;;;;;5.25;3.60;;;;;;;2.09;79.49;99885.53;5028596;28;20241;-75
2024/01/27 04:09:35;;;;;;;5.90;3.90;;;;;;;1.93;79.85;99887.53;5014986;28;20206;-75
2024/01/27 04:12:02;;;;;;;3.95;3.50;;;;;;;1.92;79.72;99894.69;5028309;28;20213;-74
2024/01/27 04:14:28;;;;;;;6.63;3.83;;;;;;;1.87;79.96;99894.13;5012414;28;20240;-75
2024/01/27 04:16:55;;;;;;;9.57;5.10;;;;;;;1.87;80.13;99890.59;5027477;28;20201;-75
2024/01/27 04:19:21;;;;;;;8.00;4.40;;;;;;;1.84;80.36;99891.66;5027481;28;20202;-74
2024/01/27 04:21:48;;;;;;;6.05;3.75;;;;;;;1.93;80.00;99895.53;5029287;28;20328;-75
2024/01/27 04:24:16;;;;;;;5.05;4.03;;;;;;;1.75;80.56;99902.09;5028967;28;20228;-74
2024/01/27 04:26:42;;;;;;;4.40;3.90;;;;;;;1.79;80.51;99901.78;5028819;28;20208;-74
2024/01/27 04:29:09;;;;;;;6.15;4.13;;;;;;;1.75;79.88;99904.75;5026463;28;20930;-75
2024/01/27 04:31:40;;;;;;;5.50;3.75;;;;;;;1.73;80.35;99904.84;5029068;28;20228;-75
2024/01/27 04:34:07;;;;;;;5.50;3.58;;;;;;;1.72;80.64;99908.47;5030275;28;20733;-75
2024/01/27 04:36:33;;;;;;;6.20;3.65;;;;;;;1.75;80.66;99902.94;5027764;28;20201;-75
2024/01/27 04:39:00;;;;;;;5.53;4.00;;;;;;;1.69;80.69;99900.66;5027988;28;20599;-75
2024/01/27 04:41:28;;;;;;;6.30;4.03;;;;;;;1.69;81.14;99906.00;5030112;28;20208;-75
2024/01/27 04:43:56;;;;;;;6.43;3.90;;;;;;;1.82;80.36;99914.06;5027043;28;20697;-75
2024/01/27 04:46:22;;;;;;;4.47;3.53;;;;;;;1.69;80.80;99914.00;5030053;28;20214;-75
2024/01/27 04:48:49;;;;;;;6.75;4.15;;;;;;;1.66;80.81;99915.06;5025391;28;20194;-75
2024/01/27 04:51:15;;;;;;;7.38;3.70;;;;;;;1.54;81.44;99915.03;5025286;28;20257;-75
2024/01/27 04:53:42;;;;;;;9.85;5.80;;;;;;;1.62;80.94;99918.06;5026752;28;20220;-75
2024/01/27 04:56:09;;;;;;;6.45;3.78;;;;;;;1.66;81.60;99924.88;5026926;28;20202;-75
2024/01/27 04:58:37;;;;;;;5.75;3.70;;;;;;;1.70;81.17;99921.06;5028790;28;20248;-75
2024/01/27 05:01:06;;;;;;;7.35;3.90;;;;;;;1.57;81.02;99914.81;5017247;28;20236;-75
2024/01/27 05:03:33;;;;;;;7.05;3.85;;;;;;;1.62;80.96;99918.06;5026855;28;20260;-75
2024/01/27 05:05:59;;;;;;;4.03;3.08;;;;;;;1.73;80.74;99915.53;5028831;28;20297;-75
2024/01/27 05:08:26;;;;;;;7.68;3.10;;;;;;;1.65;80.54;99917.81;5044560;28;20206;-75
2024/01/27 05:10:52;;;;;;;6.72;3.30;;;;;;;1.65;80.39;99917.81;5025662;28;20222;-75
2024/01/27 05:13:19;;;;;;;5.97;3.10;;;;;;;1.64;80.56;99916.09;5028529;28;20208;-74
2024/01/27 05:15:49;;;;;;;8.05;3.20;;;;;;;1.73;80.17;99920.84;5030810;28;20201;-76
2024/01/27 05:18:20;;;;;;;7.55;3.25;;;;;;;1.66;80.52;99922.22;5034763;28;21414;-75
2024/01/27 05:20:50;;;;;;;5.75;3.00;;;;;;;1.72;80.16;99923.63;5026456;28;20217;-76
2024/01/27 05:23:17;;;;;;;7.57;3.10;;;;;;;1.66;80.15;99923.06;5031597;28;20290;-73
2024/01/27 05:25:46;;;;;;;9.32;3.00;;;;;;;1.68;80.42;99926.50;5032473;28;20737;-75
2024/01/27 05:28:14;;;;;;;4.63;2.90;;;;;;;1.67;80.23;99922.09;5038710;28;20263;-75
2024/01/27 05:30:43;;;;;;;7.68;2.90;;;;;;;1.76;79.85;99918.00;5038160;28;20285;-75
2024/01/27 05:33:11;;;;;;;5.85;3.05;;;;;;;1.88;79.46;99914.53;5038956;28;20296;-76
2024/01/27 05:35:37;;;;;;;7.35;3.10;;;;;;;1.83;79.16;99905.97;5031841;28;20743;-75
2024/01/27 05:38:04;;;;;;;4.25;3.00;;;;;;;1.83;79.23;99905.97;5030005;28;20298;-75
2024/01/27 05:40:31;;;;;;;4.32;2.67;;;;;;;1.82;79.31;99906.91;5029446;28;20304;-75
2024/01/27 05:42:57;;;;;;;3.65;2.70;;;;;;;2.08;78.74;99904.31;5031241;28;20216;-75
2024/01/27 05:45:24;;;;;;;5.20;3.90;;;;;;;1.90;78.83;99917.97;5032272;28;20198;-75
2024/01/27 05:47:50;;;;;;;6.93;2.92;;;;;;;1.94;78.93;99916.81;5031475;28;20224;-75
2024/01/27 05:50:18;;;;;;;4.20;3.00;;;;;;;1.91;79.12;99916.16;5030292;28;20284;-75
2024/01/27 05:52:45;;;;;;;4.75;3.90;;;;;;;1.79;79.49;99919.59;5031252;28;20266;-75
2024/01/27 05:55:12;;;;;;;7.20;3.15;;;;;;;1.87;79.17;99915.47;5031492;28;20204;-75
2024/01/27 05:57:39;;;;;;;5.68;2.78;;;;;;;1.79;79.46;99911.59;5028720;28;20194;-75
2024/01/27 06:00:09;;;;;;;6.55;2.80;;;;;;;1.90;79.37;99917.97;5030330;28;20220;-75
2024/01/27 06:02:36;;;;;;;5.28;2.95;;;;;;;1.96;78.67;99922.88;5030816;28;20210;-75
2024/01/27 06:05:02;;;;;;;4.30;3.80;;;;;;;2.11;77.81;99921.00;5030952;28;20197;-75
2024/01/27 06:07:30;;;;;;;10.68;3.67;;;;;;;1.88;78.50;99922.53;5031231;28;20205;-74
2024/01/27 06:09:56;;;;;;;4.35;3.60;;;;;;;1.73;78.65;99936.88;5031670;28;20203;-75
2024/01/27 06:12:23;;;;;;;8.48;3.58;;;;;;;1.40;80.02;99933.69;5028557;28;20871;-75
2024/01/27 06:14:49;;;;;;;6.28;3.83;;;;;;;1.33;79.94;99939.41;5028576;28;20287;-75
2024/01/27 06:17:16;;;;;;;4.55;3.60;;;;;;;1.13;81.20;99934.50;5030635;28;20201;-75
2024/01/27 06:19:43;;;;;;;5.07;3.30;;;;;;;1.15;80.78;99935.25;5031292;28;20667;-75
2024/01/27 06:22:12;;;;;;;4.80;3.90;;;;;;;1.14;80.92;99936.22;5029631;28;20216;-76
2024/01/27 06:24:44;;;;;;;9.95;4.93;;;;;;;0.96;81.91;99945.38;5025418;28;20213;-74
2024/01/27 06:27:12;;;;;;;6.57;4.90;;;;;;;0.81;83.05;99940.97;5026164;28;20206;-77
2024/01/27 06:29:40;;;;;;;9.55;5.00;;;;;;;0.67;83.21;99936.47;5035617;28;20221;-74
2024/01/27 06:32:06;;;;;;;8.93;4.80;;;;;;;0.53;84.26;99942.63;5027160;28;20691;-71
2024/01/27 06:34:33;;;;;;;8.25;4.95;;;;;;;0.34;85.47;99957.97;5029949;28;20285;-72
2024/01/27 06:36:59;;;;;;;10.20;5.70;;;;;;;0.36;85.25;99958.75;5022134;28;20256;-71
2024/01/27 06:39:26;;;;;;;10.55;5.55;;;;;;;0.37;85.60;99962.28;5027782;28;20217;-73
2024/01/27 06:41:54;;;;;;;7.75;5.22;;;;;;;0.23;85.94;99955.97;5029285;28;20198;-71
2024/01/27 06:44:20;;;;;;;8.43;6.22;;;;;;;0.36;86.05;99969.41;5029832;28;20222;-71
2024/01/27 06:46:49;;;;;;;9.50;5.15;;;;;;;0.19;86.39;99958.91;5029266;28;20206;-71
2024/01/27 06:49:16;;;;;;;11.00;5.45;;;;;;;-0.06;87.20;99959.47;5030516;28;20222;-72
2024/01/27 06:51:44;;;;;;;7.68;5.40;;;;;;;0.17;86.88;99958.13;5030519;28;20210;-72
2024/01/27 06:54:10;;;;;;;8.27;5.07;;;;;;;0.21;86.65;99957.88;5025003;28;20729;-72
2024/01/27 06:56:38;;;;;;;8.48;5.25;;;;;;;0.20;86.81;99955.28;5025705;28;20198;-73
2024/01/27 06:59:06;;;;;;;9.15;5.47;;;;;;;0.31;86.83;99960.84;5028604;28;21134;-72
2024/01/27 07:01:32;;;;;;;7.18;4.80;;;;;;;0.31;86.79;99952.88;5028647;28;20198;-72
2024/01/27 07:03:59;;;;;;;10.30;5.40;;;;;;;0.21;86.55;99959.66;5029305;28;20292;-72
2024/01/27 07:06:25;;;;;;;6.28;5.03;;;;;;;0.36;86.32;99960.56;5026530;28;20205;-72
2024/01/27 07:08:52;;;;;;;7.15;4.93;;;;;;;0.34;86.57;99960.66;5029690;28;20212;-72
2024/01/27 07:11:18;;;;;;;4.70;4.25;;;;;;;0.24;86.80;99963.00;5030569;28;20320;-72
2024/01/27 07:13:45;;;;;;;6.93;5.25;;;;;;;0.24;86.77;99964.81;5029250;28;20570;-72
2024/01/27 07:16:12;;;;;;;5.75;5.13;;;;;;;0.09;87.73;99973.69;5025052;28;20305;-72
2024/01/27 07:18:39;;;;;;;8.50;6.20;;;;;;;-0.04;88.21;99974.41;5031203;28;20237;-72
2024/01/27 07:21:06;;;;;;;10.95;6.32;;;;;;;-0.04;88.82;99974.41;5029572;28;20193;-70
2024/01/27 07:23:32;;;;;;;9.10;6.38;;;;;;;-0.04;89.16;99979.72;5030742;28;20285;-72
2024/01/27 07:26:03;;;;;;;9.13;7.10;;;;;;;-0.07;89.56;99974.56;5029745;28;20194;-72
2024/01/27 07:28:29;;;;;;;10.80;7.55;;;;;;;0.02;89.88;99977.63;5026458;28;20264;-72
2024/01/27 07:30:56;;;;;;;10.35;8.77;;;;;;;-0.03;90.58;99977.91;5024308;28;20207;-72
2024/01/27 07:33:24;;;;;;;8.95;8.05;;;;;;;0.05;91.23;99980.13;5000097;28;20230;-71
2024/01/27 07:35:52;;;;;;;11.95;7.80;;;;;;;0.09;91.14;99981.66;5025058;28;20215;-72
2024/01/27 07:38:20;;;;;;;10.77;8.27;;;;;;;0.11;91.16;99979.78;5042302;28;20253;-73
2024/01/27 07:40:46;;;;;;;9.27;8.02;;;;;;;0.23;91.32;99982.59;5029450;28;20212;-72
2024/01/27 07:43:13;;;;;;;8.93;8.02;;;;;;;0.24;90.77;99971.00;5025236;28;20205;-72
2024/01/27 07:45:40;;;;;;;9.30;8.23;;;;;;;0.40;90.34;99973.59;5025321;28;20210;-72
2024/01/27 07:48:07;;;;;;;8.65;7.75;;;;;;;0.53;90.04;99969.28;5023351;28;20206;-74
2024/01/27 07:50:35;;;;;;;11.57;8.02;;;;;;;0.57;89.56;99978.81;5025678;28;20623;-72
2024/01/27 07:53:02;;;;;;;9.95;7.63;;;;;;;0.78;88.94;99973.13;5026939;28;20220;-72
2024/01/27 07:55:28;;;;;;;10.85;7.70;;;;;;;1.02;88.06;99976.94;5024663;28;20293;-72
2024/01/27 07:57:55;;;;;;;13.40;7.82;;;;;;;1.10;87.34;99974.69;5029959;28;20304;-71
2024/01/27 08:00:21;;;;;;;7.75;6.95;;;;;;;1.13;87.04;99970.97;5027678;28;20216;-73
2024/01/27 08:02:48;;;;;;;8.35;7.55;;;;;;;1.13;87.11;99974.50;5025986;28;20194;-70
2024/01/27 08:05:15;;;;;;;9.20;7.53;;;;;;;1.24;86.46;99957.84;5025378;28;20287;-72
2024/01/27 08:07:42;;;;;;;7.95;6.60;;;;;;;1.20;86.17;99964.31;5027666;28;20248;-71
2024/01/27 08:10:11;;;;;;;8.82;7.45;;;;;;;1.18;85.66;99972.41;5027092;28;20204;-72
2024/01/27 08:12:37;;;;;;;8.07;7.28;;;;;;;1.06;86.20;99970.47;5024012;28;20226;-77
2024/01/27 08:15:06;;;;;;;8.95;7.32;;;;;;;1.02;86.41;99960.97;5027895;28;20214;-76
2024/01/27 08:17:33;;;;;;;8.15;6.93;;;;;;;1.06;86.61;99970.47;5019373;28;20204;-72
2024/01/27 08:20:00;;;;;;;7.93;6.70;;;;;;;1.30;86.13;99971.63;5029796;28;20750;-72
2024/01/27 08:22:27;;;;;;;8.07;6.70;;;;;;;1.47;85.37;99967.03;5023826;28;20207;-72
2024/01/27 08:24:55;;;;;;;10.00;6.93;;;;;;;1.52;85.29;99964.94;5026077;28;20750;-74
2024/01/27 08:27:21;;;;;;;6.72;6.13;;;;;;;1.55;84.51;99956.75;5025427;28;20280;-73
2024/01/27 08:29:49;;;;;;;6.68;6.15;;;;;;;1.92;83.80;99969.44;5015510;28;20216;-73
2024/01/27 08:32:15;;;;;;;7.55;6.35;;;;;;;1.99;82.65;99965.38;5022281;28;20225;-73
2024/01/27 08:34:45;;;;;;;7.60;6.38;;;;;;;2.29;82.09;99964.31;5023647;28;20786;-73
2024/01/27 08:37:18;;;;;;;7.35;6.50;;;;;;;2.83;80.51;99962.41;5020592;28;20255;-73
2024/01/27 08:39:44;;;;;;;7.30;6.32;;;;;;;3.24;77.72;99950.63;5026629;28;20198;-73
2024/01/27 08:42:12;;;;;;;7.30;5.63;;;;;;;3.68;75.68;99952.78;5026863;28;20208;-73
2024/01/27 08:44:39;;;;;;;6.90;5.53;;;;;;;4.24;72.92;99947.72;5026213;28;20202;-74
2024/01/27 08:47:06;;;;;;;5.45;4.95;;;;;;;4.36;72.42;99957.53;5022292;28;20208;-74
2024/01/27 08:49:33;;;;;;;5.10;4.60;;;;;;;4.89;70.01;99955.25;5025677;28;20201;-75
2024/01/27 08:51:59;;;;;;;8.00;5.35;;;;;;;5.08;68.65;99955.53;5022327;28;20699;-74
2024/01/27 08:54:26;;;;;;;8.23;5.00;;;;;;;5.17;67.42;99959.34;5020560;28;20205;-75
2024/01/27 08:56:53;;;;;;;5.38;4.93;;;;;;;5.02;67.52;99947.97;5019850;28;20281;-74
2024/01/27 08:59:21;;;;;;;6.80;4.85;;;;;;;5.05;67.69;99937.84;5019717;28;20194;-72
2024/01/27 09:01:48;;;;;;;6.65;4.53;;;;;;;5.09;67.64;99942.97;5018785;28;20241;-73
2024/01/27 09:04:14;;;;;;;6.00;4.65;;;;;;;5.13;66.36;99939.09;5018752;28;20208;-73
2024/01/27 09:06:41;;;;;;;5.10;4.60;;;;;;;5.05;66.60;99945.03;5020075;28;20204;-73
2024/01/27 09:09:07;;;;;;;5.40;4.90;;;;;;;4.84;68.54;99947.59;5021449;28;20588;-73
2024/01/27 09:11:34;;;;;;;5.72;3.88;;;;;;;5.92;65.81;99949.66;5018007;28;20209;-73
2024/01/27 09:14:01;;;;;;;5.55;4.00;;;;;;;6.68;62.85;99943.28;5015522;28;20651;-73
2024/01/27 09:16:29;;;;;;;7.22;4.20;;;;;;;6.65;62.55;99950.75;5034173;28;20365;-72
2024/01/27 09:18:55;;;;;;;4.60;3.90;;;;;;;6.38;62.25;99953.94;5021201;28;20281;-72
2024/01/27 09:21:27;;;;;;;5.95;4.43;;;;;;;6.80;61.71;99951.28;5025287;28;20211;-73
2024/01/27 09:23:54;;;;;;;5.57;4.15;;;;;;;7.02;61.00;99948.44;5024869;28;20273;-73
2024/01/27 09:26:22;;;;;;;4.00;3.60;;;;;;;7.17;59.85;99952.50;5030191;28;20663;-76
2024/01/27 09:28:53;;;;;;;4.35;3.58;;;;;;;7.88;58.56;99944.41;5029007;28;20217;-71
2024/01/27 09:31:21;;;;;;;4.55;3.70;;;;;;;7.98;57.86;99938.06;5028552;28;20194;-71
2024/01/27 09:33:50;;;;;;;6.68;4.32;;;;;;;8.12;57.12;99942.22;5020818;28;20321;-71
2024/01/27 09:36:17;;;;;;;4.65;4.10;;;;;;;8.53;56.76;99938.41;5028657;28;20205;-71
2024/01/27 09:38:44;;;;;;;4.03;3.67;;;;;;;9.46;54.21;99953.88;5023518;28;20217;-72
2024/01/27 09:41:11;;;;;;;4.95;4.15;;;;;;;9.44;53.82;99962.13;5021630;28;20725;-71
2024/01/27 09:43:38;;;;;;;5.72;3.78;;;;;;;9.32;54.00;99963.31;5028123;28;20206;-71
2024/01/27 09:46:05;;;;;;;7.35;4.50;;;;;;;8.55;55.28;99967.97;5031809;28;20212;-71
2024/01/27 09:48:32;;;;;;;5.22;3.97;;;;;;;8.63;55.41;99963.56;5028314;28;20210;-71
2024/01/27 09:51:00;;;;;;;6.55;4.40;;;;;;;9.41;53.25;99962.44;5024897;28;20206;-71
2024/01/27 09:53:27;;;;;;;7.43;4.50;;;;;;;9.42;53.26;99957.91;5024574;28;20568;-71
2024/01/27 09:55:56;;;;;;;5.10;3.97;;;;;;;9.46;53.58;99961.97;5021007;28;20208;-71
2024/01/27 09:58:23;;;;;;;5.88;4.40;;;;;;;10.29;50.63;99963.72;5026230;28;20212;-70
2024/01/27 10:00:50;;;;;;;5.90;4.07;;;;;;;10.02;51.48;99975.41;5028413;28;20763;-71
2024/01/27 10:03:20;;;;;;;8.03;4.93;;;;;;;10.26;49.71;99979.41;5025572;28;20647;-73
2024/01/27 10:05:47;;;;;;;7.40;4.20;;;;;;;10.42;50.48;99985.00;5028130;28;20616;-73
2024/01/27 10:08:15;;;;;;;5.20;4.20;;;;;;;10.58;50.11;99978.91;5029691;28;20636;-73
2024/01/27 10:10:41;;;;;;;5.27;3.90;;;;;;;10.91;48.73;99974.63;5036460;28;20640;-73
2024/01/27 10:13:08;;;;;;;7.03;4.30;;;;;;;11.04;48.65;99985.94;5025019;28;20660;-73
2024/01/27 10:15:35;;;;;;;6.77;4.00;;;;;;;11.16;47.37;99973.81;5025291;28;20625;-73
2024/01/27 10:18:08;;;;;;;5.10;4.60;;;;;;;11.82;46.86;99970.50;5027562;28;20660;-73
2024/01/27 10:20:35;;;;;;;8.20;4.30;;;;;;;11.75;47.28;99964.00;5026730;28;22913;-73
2024/01/27 10:23:11;;;;;;;4.80;4.10;;;;;;;12.39;45.29;99959.84;5026624;28;20627;-73
2024/01/27 10:25:39;;;;;;;7.20;4.70;;;;;;;12.06;46.07;99957.03;5023813;28;20639;-73
2024/01/27 10:28:07;;;;;;;6.10;3.40;;;;;;;11.81;46.05;99971.53;5028353;28;20640;-73
2024/01/27 10:30:34;;;;;;;4.50;3.90;;;;;;;11.55;46.91;99966.09;5027101;28;20620;-72
2024/01/27 10:33:00;;;;;;;4.67;3.63;;;;;;;11.11;48.27;99976.13;5029006;28;20659;-72
2024/01/27 10:35:27;;;;;;;4.50;3.50;;;;;;;11.54;47.06;99977.13;5027729;28;20637;-72
2024/01/27 10:37:54;;;;;;;6.00;4.10;;;;;;;11.38;47.41;99967.84;5024331;28;20633;-72
2024/01/27 10:40:21;;;;;;;4.83;4.17;;;;;;;11.81;46.76;99957.97;5026153;28;20629;-72
2024/01/27 10:42:52;;;;;;;5.23;4.13;;;;;;;10.89;48.83;99965.81;5027913;28;20644;-73
2024/01/27 10:45:19;;;;;;;4.77;3.80;;;;;;;11.50;47.70;99964.88;5023531;28;21027;-73
2024/01/27 10:47:46;;;;;;;5.77;3.97;;;;;;;11.59;46.53;99956.66;5022547;28;20704;-73
2024/01/27 10:50:14;;;;;;;5.37;3.57;;;;;;;11.72;46.62;99948.03;5029216;28;21225;-72
2024/01/27 10:52:44;;;;;;;6.97;4.40;;;;;;;11.38;47.37;99939.91;5025188;28;20656;-72
2024/01/27 10:55:11;;;;;;;9.10;4.33;;;;;;;10.70;48.11;99934.34;5024630;28;20629;-72
2024/01/27 10:57:38;;;;;;;4.13;3.53;;;;;;;10.56;48.94;99943.88;5017161;28;20724;-72
2024/01/27 11:00:08;;;;;;;6.00;3.57;;;;;;;10.71;48.29;99928.78;5024807;28;20633;-72
2024/01/27 11:02:35;;;;;;;5.30;3.40;;;;;;;10.73;48.45;99924.03;5028346;28;20619;-72
2024/01/27 11:05:03;;;;;;;5.30;3.20;;;;;;;10.70;47.16;99924.38;5024783;28;20635;-72
2024/01/27 11:07:31;;;;;;;5.57;3.53;;;;;;;10.51;48.99;99907.44;5028913;28;21285;-72
2024/01/27 11:09:58;;;;;;;4.88;4.38;;;;;;;10.31;50.68;99906.75;5030048;28;20635;-72
2024/01/27 11:12:25;;;;;;;6.65;4.57;;;;;;;10.27;51.23;99905.34;5026181;28;20694;-72
2024/01/27 11:14:52;;;;;;;4.88;3.95;;;;;;;10.44;50.82;99918.88;5028898;28;20198;-72
2024/01/27 11:17:20;;;;;;;9.63;4.60;;;;;;;9.43;52.84;99916.31;5030728;28;20556;-72
2024/01/27 11:19:47;;;;;;;6.03;4.47;;;;;;;10.02;51.73;99917.75;5025617;28;20210;-72
2024/01/27 11:22:26;;;;;;;5.57;5.00;;;;;;;10.18;51.84;99901.69;5025441;28;20214;-72
2024/01/27 11:24:53;;;;;;;5.45;4.03;;;;;;;10.74;50.70;99901.34;5021373;28;20209;-73
2024/01/27 11:27:29;;;;;;;7.53;4.45;;;;;;;10.82;50.03;99895.16;5027084;28;20207;-72
2024/01/27 11:29:55;;;;;;;6.20;4.43;;;;;;;11.18;49.08;99885.06;5027756;28;20209;-73
2024/01/27 11:32:23;;;;;;;5.72;4.35;;;;;;;11.60;47.78;99884.28;5026173;28;20628;-72
2024/01/27 11:34:50;;;;;;;5.77;4.23;;;;;;;11.61;47.10;99891.41;5029363;28;20209;-72
2024/01/27 11:37:19;;;;;;;6.63;4.30;;;;;;;12.00;46.50;99892.59;5028400;28;20640;-72
2024/01/27 11:39:46;;;;;;;7.23;4.40;;;;;;;11.25;47.03;99899.69;5028398;28;20673;-72